sensor_id;sensor_type;location;lat;lon;timestamp;P1;durP1;ratioP1;P2;durP2;ratioP2
65896;SDS011;52677;50.898;10.854;2022-09-30T00:00:47;7.13;;;4.95;;
65896;SDS011;52677;50.898;10.854;2022-09-30T00:02:47;5.65;;;4.72;;
65896;SDS011;52677;50.898;10.854;2022-09-30T00:04:48;7.55;;;5.53;;
65896;SDS011;52677;50.898;10.854;2022-09-30T00:06:49;7.03;;;4.97;;
65896;SDS011;52677;50.898;10.854;2022-09-30T00:08:51;9.98;;;5.47;;
65896;SDS011;52677;50.898;10.854;2022-09-30T00:11:26;6.90;;;4.97;;
65896;SDS011;52677;50.898;10.854;2022-09-30T00:13:20;7.63;;;4.85;;
65896;SDS011;52677;50.898;10.854;2022-09-30T00:15:21;7.40;;;5.60;;
65896;SDS011;52677;50.898;10.854;2022-09-30T00:17:21;7.88;;;5.28;;
65896;SDS011;52677;50.898;10.854;2022-09-30T00:19:21;10.10;;;5.60;;
65896;SDS011;52677;50.898;10.854;2022-09-30T00:21:22;6.30;;;4.88;;
65896;SDS011;52677;50.898;10.854;2022-09-30T00:23:23;7.43;;;5.28;;
65896;SDS011;52677;50.898;10.854;2022-09-30T00:25:23;7.55;;;5.18;;
65896;SDS011;52677;50.898;10.854;2022-09-30T00:27:24;7.43;;;5.05;;
65896;SDS011;52677;50.898;10.854;2022-09-30T00:29:24;7.28;;;4.85;;
65896;SDS011;52677;50.898;10.854;2022-09-30T00:31:26;7.28;;;5.20;;
65896;SDS011;52677;50.898;10.854;2022-09-30T00:33:30;6.70;;;4.97;;
65896;SDS011;52677;50.898;10.854;2022-09-30T00:35:30;7.25;;;4.55;;
65896;SDS011;52677;50.898;10.854;2022-09-30T00:37:31;6.88;;;4.55;;
65896;SDS011;52677;50.898;10.854;2022-09-30T00:39:31;6.35;;;4.38;;
65896;SDS011;52677;50.898;10.854;2022-09-30T00:41:31;8.05;;;4.07;;
65896;SDS011;52677;50.898;10.854;2022-09-30T00:43:45;5.88;;;3.83;;
65896;SDS011;52677;50.898;10.854;2022-09-30T00:45:53;5.55;;;4.07;;
65896;SDS011;52677;50.898;10.854;2022-09-30T00:48:30;4.97;;;3.67;;
65896;SDS011;52677;50.898;10.854;2022-09-30T00:52:46;5.30;;;3.88;;
65896;SDS011;52677;50.898;10.854;2022-09-30T00:55:26;6.15;;;3.90;;
65896;SDS011;52677;50.898;10.854;2022-09-30T00:57:38;5.95;;;3.97;;
65896;SDS011;52677;50.898;10.854;2022-09-30T00:59:40;7.88;;;4.03;;
65896;SDS011;52677;50.898;10.854;2022-09-30T01:01:46;5.45;;;4.25;;
65896;SDS011;52677;50.898;10.854;2022-09-30T01:03:52;6.97;;;4.07;;
65896;SDS011;52677;50.898;10.854;2022-09-30T01:05:56;5.70;;;4.10;;
65896;SDS011;52677;50.898;10.854;2022-09-30T01:07:56;5.47;;;4.15;;
65896;SDS011;52677;50.898;10.854;2022-09-30T01:09:59;4.95;;;3.72;;
65896;SDS011;52677;50.898;10.854;2022-09-30T01:12:08;6.68;;;3.78;;
65896;SDS011;52677;50.898;10.854;2022-09-30T01:14:19;5.53;;;3.60;;
65896;SDS011;52677;50.898;10.854;2022-09-30T01:16:31;9.00;;;3.97;;
65896;SDS011;52677;50.898;10.854;2022-09-30T01:30:08;4.57;;;3.50;;
65896;SDS011;52677;50.898;10.854;2022-09-30T01:42:55;9.23;;;4.65;;
65896;SDS011;52677;50.898;10.854;2022-09-30T01:45:20;6.90;;;4.47;;
65896;SDS011;52677;50.898;10.854;2022-09-30T01:47:33;5.93;;;4.00;;
65896;SDS011;52677;50.898;10.854;2022-09-30T01:52:08;5.57;;;4.20;;
65896;SDS011;52677;50.898;10.854;2022-09-30T01:56:31;5.53;;;3.70;;
65896;SDS011;52677;50.898;10.854;2022-09-30T02:00:41;7.10;;;4.15;;
65896;SDS011;52677;50.898;10.854;2022-09-30T02:05:04;4.25;;;3.30;;
65896;SDS011;52677;50.898;10.854;2022-09-30T02:07:10;7.03;;;3.92;;
65896;SDS011;52677;50.898;10.854;2022-09-30T02:09:19;5.53;;;3.92;;
65896;SDS011;52677;50.898;10.854;2022-09-30T02:11:24;5.45;;;3.83;;
65896;SDS011;52677;50.898;10.854;2022-09-30T02:13:31;6.80;;;4.40;;
65896;SDS011;52677;50.898;10.854;2022-09-30T02:15:46;6.53;;;3.60;;
65896;SDS011;52677;50.898;10.854;2022-09-30T02:17:55;4.13;;;3.42;;
65896;SDS011;52677;50.898;10.854;2022-09-30T02:20:03;7.00;;;4.03;;
65896;SDS011;52677;50.898;10.854;2022-09-30T02:22:13;7.15;;;4.80;;
65896;SDS011;52677;50.898;10.854;2022-09-30T02:24:17;8.45;;;4.70;;
65896;SDS011;52677;50.898;10.854;2022-09-30T02:26:22;8.48;;;3.90;;
65896;SDS011;52677;50.898;10.854;2022-09-30T02:28:26;5.70;;;4.15;;
65896;SDS011;52677;50.898;10.854;2022-09-30T02:30:29;5.57;;;3.70;;
65896;SDS011;52677;50.898;10.854;2022-09-30T02:32:34;6.30;;;4.15;;
65896;SDS011;52677;50.898;10.854;2022-09-30T02:34:49;5.07;;;3.60;;
65896;SDS011;52677;50.898;10.854;2022-09-30T02:36:58;4.68;;;3.50;;
65896;SDS011;52677;50.898;10.854;2022-09-30T02:39:12;6.25;;;3.78;;
65896;SDS011;52677;50.898;10.854;2022-09-30T02:43:25;6.13;;;4.43;;
65896;SDS011;52677;50.898;10.854;2022-09-30T02:45:26;9.55;;;4.55;;
65896;SDS011;52677;50.898;10.854;2022-09-30T02:47:32;6.45;;;4.35;;
65896;SDS011;52677;50.898;10.854;2022-09-30T02:49:38;9.93;;;4.38;;
65896;SDS011;52677;50.898;10.854;2022-09-30T02:51:55;8.95;;;4.78;;
65896;SDS011;52677;50.898;10.854;2022-09-30T02:58:16;6.40;;;4.25;;
65896;SDS011;52677;50.898;10.854;2022-09-30T03:00:19;5.95;;;4.32;;
65896;SDS011;52677;50.898;10.854;2022-09-30T03:02:20;4.88;;;3.65;;
65896;SDS011;52677;50.898;10.854;2022-09-30T03:04:22;5.38;;;4.10;;
65896;SDS011;52677;50.898;10.854;2022-09-30T03:06:25;7.00;;;4.00;;
65896;SDS011;52677;50.898;10.854;2022-09-30T03:08:26;4.45;;;3.67;;
65896;SDS011;52677;50.898;10.854;2022-09-30T03:10:26;4.72;;;4.00;;
65896;SDS011;52677;50.898;10.854;2022-09-30T03:14:39;7.68;;;4.25;;
65896;SDS011;52677;50.898;10.854;2022-09-30T03:19:05;5.68;;;3.95;;
65896;SDS011;52677;50.898;10.854;2022-09-30T03:21:37;4.28;;;3.55;;
65896;SDS011;52677;50.898;10.854;2022-09-30T03:28:28;4.57;;;3.42;;
65896;SDS011;52677;50.898;10.854;2022-09-30T03:30:34;4.68;;;3.45;;
65896;SDS011;52677;50.898;10.854;2022-09-30T03:35:35;5.25;;;3.25;;
65896;SDS011;52677;50.898;10.854;2022-09-30T03:42:26;5.85;;;3.63;;
65896;SDS011;52677;50.898;10.854;2022-09-30T03:46:58;4.65;;;3.30;;
65896;SDS011;52677;50.898;10.854;2022-09-30T03:49:03;3.63;;;3.10;;
65896;SDS011;52677;50.898;10.854;2022-09-30T03:51:07;8.80;;;3.80;;
65896;SDS011;52677;50.898;10.854;2022-09-30T03:53:08;5.22;;;3.53;;
65896;SDS011;52677;50.898;10.854;2022-09-30T03:55:11;4.38;;;3.53;;
65896;SDS011;52677;50.898;10.854;2022-09-30T03:57:12;4.07;;;2.97;;
65896;SDS011;52677;50.898;10.854;2022-09-30T03:59:17;5.53;;;3.55;;
65896;SDS011;52677;50.898;10.854;2022-09-30T04:01:22;4.07;;;3.33;;
65896;SDS011;52677;50.898;10.854;2022-09-30T04:03:22;4.93;;;3.40;;
65896;SDS011;52677;50.898;10.854;2022-09-30T04:05:26;5.43;;;3.17;;
65896;SDS011;52677;50.898;10.854;2022-09-30T04:07:27;4.70;;;3.17;;
65896;SDS011;52677;50.898;10.854;2022-09-30T04:09:27;7.57;;;3.25;;
65896;SDS011;52677;50.898;10.854;2022-09-30T04:11:27;4.20;;;3.53;;
65896;SDS011;52677;50.898;10.854;2022-09-30T04:13:28;4.47;;;3.53;;
65896;SDS011;52677;50.898;10.854;2022-09-30T04:15:28;5.55;;;3.45;;
65896;SDS011;52677;50.898;10.854;2022-09-30T04:17:28;5.00;;;2.95;;
65896;SDS011;52677;50.898;10.854;2022-09-30T04:19:28;5.60;;;3.38;;
65896;SDS011;52677;50.898;10.854;2022-09-30T04:21:29;4.75;;;3.50;;
65896;SDS011;52677;50.898;10.854;2022-09-30T04:23:29;6.63;;;4.55;;
65896;SDS011;52677;50.898;10.854;2022-09-30T04:27:32;4.70;;;3.50;;
65896;SDS011;52677;50.898;10.854;2022-09-30T04:29:33;7.28;;;3.90;;
65896;SDS011;52677;50.898;10.854;2022-09-30T04:31:33;7.28;;;3.40;;
65896;SDS011;52677;50.898;10.854;2022-09-30T04:33:33;5.70;;;3.60;;
65896;SDS011;52677;50.898;10.854;2022-09-30T04:35:35;4.45;;;3.10;;
65896;SDS011;52677;50.898;10.854;2022-09-30T04:37:39;6.22;;;3.67;;
65896;SDS011;52677;50.898;10.854;2022-09-30T04:39:40;6.30;;;3.50;;
65896;SDS011;52677;50.898;10.854;2022-09-30T04:41:41;5.78;;;3.40;;
65896;SDS011;52677;50.898;10.854;2022-09-30T04:43:45;4.80;;;3.15;;
65896;SDS011;52677;50.898;10.854;2022-09-30T04:45:47;5.05;;;3.55;;
65896;SDS011;52677;50.898;10.854;2022-09-30T04:47:47;7.68;;;3.45;;
65896;SDS011;52677;50.898;10.854;2022-09-30T04:49:48;6.60;;;4.13;;
65896;SDS011;52677;50.898;10.854;2022-09-30T04:51:48;6.88;;;3.92;;
65896;SDS011;52677;50.898;10.854;2022-09-30T04:53:48;6.38;;;3.45;;
65896;SDS011;52677;50.898;10.854;2022-09-30T04:55:49;7.05;;;3.70;;
65896;SDS011;52677;50.898;10.854;2022-09-30T04:57:49;12.18;;;4.53;;
65896;SDS011;52677;50.898;10.854;2022-09-30T04:59:50;6.00;;;3.33;;
65896;SDS011;52677;50.898;10.854;2022-09-30T05:01:50;4.93;;;3.65;;
65896;SDS011;52677;50.898;10.854;2022-09-30T05:03:52;6.65;;;3.83;;
65896;SDS011;52677;50.898;10.854;2022-09-30T05:05:53;5.18;;;3.58;;
65896;SDS011;52677;50.898;10.854;2022-09-30T05:08:03;10.10;;;4.45;;
65896;SDS011;52677;50.898;10.854;2022-09-30T05:10:04;7.07;;;4.38;;
65896;SDS011;52677;50.898;10.854;2022-09-30T05:12:06;6.07;;;4.40;;
65896;SDS011;52677;50.898;10.854;2022-09-30T05:14:07;6.55;;;4.45;;
65896;SDS011;52677;50.898;10.854;2022-09-30T05:16:10;5.18;;;3.92;;
65896;SDS011;52677;50.898;10.854;2022-09-30T05:18:11;7.22;;;4.25;;
65896;SDS011;52677;50.898;10.854;2022-09-30T05:20:11;5.28;;;3.45;;
65896;SDS011;52677;50.898;10.854;2022-09-30T05:22:11;6.15;;;3.80;;
65896;SDS011;52677;50.898;10.854;2022-09-30T05:24:13;7.22;;;4.22;;
65896;SDS011;52677;50.898;10.854;2022-09-30T05:26:13;6.43;;;4.22;;
65896;SDS011;52677;50.898;10.854;2022-09-30T05:28:14;6.50;;;4.43;;
65896;SDS011;52677;50.898;10.854;2022-09-30T05:30:14;5.43;;;4.10;;
65896;SDS011;52677;50.898;10.854;2022-09-30T05:32:14;8.27;;;4.38;;
65896;SDS011;52677;50.898;10.854;2022-09-30T05:34:16;7.40;;;4.18;;
65896;SDS011;52677;50.898;10.854;2022-09-30T05:36:16;8.73;;;4.13;;
65896;SDS011;52677;50.898;10.854;2022-09-30T05:38:17;5.18;;;3.85;;
65896;SDS011;52677;50.898;10.854;2022-09-30T05:40:17;7.05;;;4.03;;
65896;SDS011;52677;50.898;10.854;2022-09-30T05:42:17;6.72;;;3.58;;
65896;SDS011;52677;50.898;10.854;2022-09-30T05:44:18;4.90;;;3.72;;
65896;SDS011;52677;50.898;10.854;2022-09-30T05:46:18;6.07;;;4.38;;
65896;SDS011;52677;50.898;10.854;2022-09-30T05:48:19;6.60;;;3.70;;
65896;SDS011;52677;50.898;10.854;2022-09-30T05:50:20;9.40;;;4.45;;
65896;SDS011;52677;50.898;10.854;2022-09-30T05:52:21;7.50;;;4.10;;
65896;SDS011;52677;50.898;10.854;2022-09-30T05:54:21;9.95;;;4.43;;
65896;SDS011;52677;50.898;10.854;2022-09-30T05:56:21;7.07;;;4.18;;
65896;SDS011;52677;50.898;10.854;2022-09-30T05:58:22;8.30;;;4.47;;
65896;SDS011;52677;50.898;10.854;2022-09-30T06:00:22;8.52;;;4.60;;
65896;SDS011;52677;50.898;10.854;2022-09-30T06:02:23;7.53;;;5.22;;
65896;SDS011;52677;50.898;10.854;2022-09-30T06:04:23;8.48;;;4.72;;
65896;SDS011;52677;50.898;10.854;2022-09-30T06:06:24;7.35;;;4.22;;
65896;SDS011;52677;50.898;10.854;2022-09-30T06:08:25;6.88;;;4.57;;
65896;SDS011;52677;50.898;10.854;2022-09-30T06:10:25;5.78;;;4.22;;
65896;SDS011;52677;50.898;10.854;2022-09-30T06:12:26;7.55;;;4.75;;
65896;SDS011;52677;50.898;10.854;2022-09-30T06:14:27;9.13;;;4.85;;
65896;SDS011;52677;50.898;10.854;2022-09-30T06:16:27;7.60;;;5.25;;
65896;SDS011;52677;50.898;10.854;2022-09-30T06:18:28;8.98;;;5.20;;
65896;SDS011;52677;50.898;10.854;2022-09-30T06:20:30;9.33;;;5.80;;
65896;SDS011;52677;50.898;10.854;2022-09-30T06:22:31;8.40;;;5.00;;
65896;SDS011;52677;50.898;10.854;2022-09-30T06:24:34;9.40;;;5.68;;
65896;SDS011;52677;50.898;10.854;2022-09-30T06:26:35;11.23;;;5.82;;
65896;SDS011;52677;50.898;10.854;2022-09-30T06:28:35;8.48;;;5.93;;
65896;SDS011;52677;50.898;10.854;2022-09-30T06:30:36;8.50;;;5.93;;
65896;SDS011;52677;50.898;10.854;2022-09-30T06:32:36;9.52;;;5.97;;
65896;SDS011;52677;50.898;10.854;2022-09-30T06:34:37;10.35;;;6.13;;
65896;SDS011;52677;50.898;10.854;2022-09-30T06:36:37;8.23;;;6.05;;
65896;SDS011;52677;50.898;10.854;2022-09-30T06:38:37;10.02;;;6.43;;
65896;SDS011;52677;50.898;10.854;2022-09-30T06:40:38;10.27;;;6.75;;
65896;SDS011;52677;50.898;10.854;2022-09-30T06:42:39;9.48;;;6.47;;
65896;SDS011;52677;50.898;10.854;2022-09-30T06:44:39;8.73;;;6.38;;
65896;SDS011;52677;50.898;10.854;2022-09-30T06:46:39;11.30;;;7.57;;
65896;SDS011;52677;50.898;10.854;2022-09-30T06:48:40;16.45;;;7.82;;
65896;SDS011;52677;50.898;10.854;2022-09-30T06:50:40;12.43;;;7.78;;
65896;SDS011;52677;50.898;10.854;2022-09-30T06:52:41;13.25;;;9.48;;
65896;SDS011;52677;50.898;10.854;2022-09-30T06:54:41;11.10;;;8.43;;
65896;SDS011;52677;50.898;10.854;2022-09-30T06:56:42;13.30;;;10.50;;
65896;SDS011;52677;50.898;10.854;2022-09-30T06:58:43;16.98;;;12.00;;
65896;SDS011;52677;50.898;10.854;2022-09-30T07:00:44;14.73;;;10.80;;
65896;SDS011;52677;50.898;10.854;2022-09-30T07:02:44;14.82;;;12.50;;
65896;SDS011;52677;50.898;10.854;2022-09-30T07:04:44;17.05;;;12.98;;
65896;SDS011;52677;50.898;10.854;2022-09-30T07:06:45;16.67;;;10.45;;
65896;SDS011;52677;50.898;10.854;2022-09-30T07:08:45;12.52;;;8.75;;
65896;SDS011;52677;50.898;10.854;2022-09-30T07:10:46;11.25;;;8.45;;
65896;SDS011;52677;50.898;10.854;2022-09-30T07:12:52;10.98;;;8.10;;
65896;SDS011;52677;50.898;10.854;2022-09-30T07:14:53;10.95;;;7.15;;
65896;SDS011;52677;50.898;10.854;2022-09-30T07:16:55;8.88;;;6.60;;
65896;SDS011;52677;50.898;10.854;2022-09-30T07:18:55;10.57;;;7.22;;
65896;SDS011;52677;50.898;10.854;2022-09-30T07:20:56;8.65;;;6.22;;
65896;SDS011;52677;50.898;10.854;2022-09-30T07:22:56;7.75;;;5.93;;
65896;SDS011;52677;50.898;10.854;2022-09-30T07:24:58;8.48;;;5.10;;
65896;SDS011;52677;50.898;10.854;2022-09-30T07:27:00;7.20;;;5.22;;
65896;SDS011;52677;50.898;10.854;2022-09-30T07:29:00;12.20;;;6.43;;
65896;SDS011;52677;50.898;10.854;2022-09-30T07:31:07;7.20;;;5.05;;
65896;SDS011;52677;50.898;10.854;2022-09-30T07:33:10;7.85;;;5.57;;
65896;SDS011;52677;50.898;10.854;2022-09-30T07:35:15;6.20;;;4.95;;
65896;SDS011;52677;50.898;10.854;2022-09-30T07:37:16;8.77;;;5.25;;
65896;SDS011;52677;50.898;10.854;2022-09-30T07:39:18;6.75;;;4.82;;
65896;SDS011;52677;50.898;10.854;2022-09-30T07:41:23;9.88;;;5.55;;
65896;SDS011;52677;50.898;10.854;2022-09-30T07:43:27;7.07;;;4.82;;
65896;SDS011;52677;50.898;10.854;2022-09-30T07:45:37;7.47;;;4.97;;
65896;SDS011;52677;50.898;10.854;2022-09-30T07:47:38;8.15;;;5.05;;
65896;SDS011;52677;50.898;10.854;2022-09-30T07:49:38;6.93;;;4.95;;
65896;SDS011;52677;50.898;10.854;2022-09-30T07:51:39;12.15;;;5.45;;
65896;SDS011;52677;50.898;10.854;2022-09-30T07:53:43;7.85;;;5.50;;
65896;SDS011;52677;50.898;10.854;2022-09-30T07:55:45;9.32;;;4.65;;
65896;SDS011;52677;50.898;10.854;2022-09-30T07:57:45;6.70;;;4.75;;
65896;SDS011;52677;50.898;10.854;2022-09-30T07:59:47;5.75;;;4.70;;
65896;SDS011;52677;50.898;10.854;2022-09-30T08:01:47;9.85;;;5.35;;
65896;SDS011;52677;50.898;10.854;2022-09-30T08:03:51;8.80;;;5.00;;
65896;SDS011;52677;50.898;10.854;2022-09-30T08:05:56;7.82;;;4.30;;
65896;SDS011;52677;50.898;10.854;2022-09-30T08:08:03;5.95;;;4.75;;
65896;SDS011;52677;50.898;10.854;2022-09-30T08:10:06;5.53;;;4.53;;
65896;SDS011;52677;50.898;10.854;2022-09-30T08:12:06;7.28;;;4.40;;
65896;SDS011;52677;50.898;10.854;2022-09-30T08:14:10;5.47;;;4.38;;
65896;SDS011;52677;50.898;10.854;2022-09-30T08:16:13;5.88;;;4.65;;
65896;SDS011;52677;50.898;10.854;2022-09-30T08:18:13;5.90;;;4.70;;
65896;SDS011;52677;50.898;10.854;2022-09-30T08:20:14;7.90;;;4.82;;
65896;SDS011;52677;50.898;10.854;2022-09-30T08:22:14;5.90;;;4.55;;
65896;SDS011;52677;50.898;10.854;2022-09-30T08:24:15;7.57;;;5.40;;
65896;SDS011;52677;50.898;10.854;2022-09-30T08:26:16;5.63;;;3.90;;
65896;SDS011;52677;50.898;10.854;2022-09-30T08:28:17;7.93;;;5.18;;
65896;SDS011;52677;50.898;10.854;2022-09-30T08:30:17;6.13;;;4.95;;
65896;SDS011;52677;50.898;10.854;2022-09-30T08:32:18;10.95;;;5.90;;
65896;SDS011;52677;50.898;10.854;2022-09-30T08:34:18;8.50;;;6.35;;
65896;SDS011;52677;50.898;10.854;2022-09-30T08:36:20;7.82;;;5.80;;
65896;SDS011;52677;50.898;10.854;2022-09-30T08:38:21;7.72;;;5.57;;
65896;SDS011;52677;50.898;10.854;2022-09-30T08:40:22;7.28;;;4.40;;
65896;SDS011;52677;50.898;10.854;2022-09-30T08:42:34;16.05;;;6.90;;
65896;SDS011;52677;50.898;10.854;2022-09-30T08:45:00;6.05;;;4.78;;
65896;SDS011;52677;50.898;10.854;2022-09-30T08:51:46;7.43;;;4.60;;
65896;SDS011;52677;50.898;10.854;2022-09-30T08:53:49;7.95;;;4.32;;
65896;SDS011;52677;50.898;10.854;2022-09-30T08:55:50;5.53;;;4.47;;
65896;SDS011;52677;50.898;10.854;2022-09-30T08:57:54;6.07;;;4.57;;
65896;SDS011;52677;50.898;10.854;2022-09-30T08:59:56;6.45;;;4.22;;
65896;SDS011;52677;50.898;10.854;2022-09-30T09:04:31;7.00;;;4.90;;
65896;SDS011;52677;50.898;10.854;2022-09-30T09:06:43;12.50;;;5.57;;
65896;SDS011;52677;50.898;10.854;2022-09-30T09:08:49;7.47;;;4.43;;
65896;SDS011;52677;50.898;10.854;2022-09-30T09:15:50;10.05;;;5.68;;
65896;SDS011;52677;50.898;10.854;2022-09-30T09:20:15;8.52;;;5.00;;
65896;SDS011;52677;50.898;10.854;2022-09-30T09:22:17;9.43;;;4.88;;
65896;SDS011;52677;50.898;10.854;2022-09-30T09:24:21;5.70;;;4.75;;
65896;SDS011;52677;50.898;10.854;2022-09-30T09:26:24;8.80;;;5.13;;
65896;SDS011;52677;50.898;10.854;2022-09-30T09:28:33;9.40;;;5.32;;
65896;SDS011;52677;50.898;10.854;2022-09-30T09:30:43;9.93;;;5.75;;
65896;SDS011;52677;50.898;10.854;2022-09-30T09:32:51;7.63;;;6.07;;
65896;SDS011;52677;50.898;10.854;2022-09-30T09:34:56;7.78;;;5.95;;
65896;SDS011;52677;50.898;10.854;2022-09-30T09:37:29;8.07;;;5.75;;
65896;SDS011;52677;50.898;10.854;2022-09-30T09:40:08;11.35;;;6.28;;
65896;SDS011;52677;50.898;10.854;2022-09-30T09:44:46;8.57;;;5.68;;
65896;SDS011;52677;50.898;10.854;2022-09-30T09:46:57;7.85;;;5.68;;
65896;SDS011;52677;50.898;10.854;2022-09-30T09:53:39;9.27;;;5.47;;
65896;SDS011;52677;50.898;10.854;2022-09-30T09:55:44;7.85;;;6.20;;
65896;SDS011;52677;50.898;10.854;2022-09-30T09:57:44;8.38;;;6.10;;
65896;SDS011;52677;50.898;10.854;2022-09-30T10:01:55;7.20;;;5.20;;
65896;SDS011;52677;50.898;10.854;2022-09-30T10:06:26;7.85;;;5.45;;
65896;SDS011;52677;50.898;10.854;2022-09-30T10:08:59;7.30;;;5.60;;
65896;SDS011;52677;50.898;10.854;2022-09-30T10:11:06;13.15;;;5.88;;
65896;SDS011;52677;50.898;10.854;2022-09-30T10:15:28;7.05;;;4.70;;
65896;SDS011;52677;50.898;10.854;2022-09-30T10:17:29;5.97;;;5.13;;
65896;SDS011;52677;50.898;10.854;2022-09-30T10:19:32;4.22;;;3.83;;
65896;SDS011;52677;50.898;10.854;2022-09-30T10:21:33;5.47;;;4.13;;
65896;SDS011;52677;50.898;10.854;2022-09-30T10:23:37;7.45;;;4.40;;
65896;SDS011;52677;50.898;10.854;2022-09-30T10:25:39;5.45;;;3.88;;
65896;SDS011;52677;50.898;10.854;2022-09-30T10:27:58;7.32;;;4.55;;
65896;SDS011;52677;50.898;10.854;2022-09-30T10:30:00;5.50;;;4.43;;
65896;SDS011;52677;50.898;10.854;2022-09-30T10:32:01;6.93;;;4.60;;
65896;SDS011;52677;50.898;10.854;2022-09-30T10:34:09;9.68;;;4.68;;
65896;SDS011;52677;50.898;10.854;2022-09-30T10:36:28;4.00;;;3.55;;
65896;SDS011;52677;50.898;10.854;2022-09-30T10:38:31;5.20;;;3.40;;
65896;SDS011;52677;50.898;10.854;2022-09-30T10:40:33;4.47;;;2.92;;
65896;SDS011;52677;50.898;10.854;2022-09-30T10:42:34;4.63;;;2.90;;
65896;SDS011;52677;50.898;10.854;2022-09-30T10:44:46;2.58;;;2.13;;
65896;SDS011;52677;50.898;10.854;2022-09-30T10:46:51;2.47;;;1.90;;
65896;SDS011;52677;50.898;10.854;2022-09-30T10:48:57;3.60;;;2.30;;
65896;SDS011;52677;50.898;10.854;2022-09-30T10:50:59;5.20;;;2.47;;
65896;SDS011;52677;50.898;10.854;2022-09-30T10:53:14;4.43;;;3.15;;
65896;SDS011;52677;50.898;10.854;2022-09-30T10:59:35;3.60;;;3.17;;
65896;SDS011;52677;50.898;10.854;2022-09-30T11:01:39;5.85;;;3.00;;
65896;SDS011;52677;50.898;10.854;2022-09-30T11:06:09;4.82;;;2.63;;
65896;SDS011;52677;50.898;10.854;2022-09-30T11:10:31;5.20;;;2.88;;
65896;SDS011;52677;50.898;10.854;2022-09-30T11:12:39;3.60;;;3.20;;
65896;SDS011;52677;50.898;10.854;2022-09-30T11:14:54;9.23;;;3.25;;
65896;SDS011;52677;50.898;10.854;2022-09-30T11:17:19;3.65;;;2.92;;
65896;SDS011;52677;50.898;10.854;2022-09-30T11:19:37;5.25;;;3.33;;
65896;SDS011;52677;50.898;10.854;2022-09-30T11:21:58;6.07;;;3.88;;
65896;SDS011;52677;50.898;10.854;2022-09-30T11:24:47;5.72;;;3.60;;
65896;SDS011;52677;50.898;10.854;2022-09-30T11:31:47;5.95;;;4.13;;
65896;SDS011;52677;50.898;10.854;2022-09-30T11:41:00;4.72;;;3.60;;
65896;SDS011;52677;50.898;10.854;2022-09-30T11:47:51;5.57;;;3.30;;
65896;SDS011;52677;50.898;10.854;2022-09-30T11:58:33;3.97;;;3.58;;
65896;SDS011;52677;50.898;10.854;2022-09-30T12:00:40;3.50;;;3.20;;
65896;SDS011;52677;50.898;10.854;2022-09-30T12:02:47;5.88;;;4.03;;
65896;SDS011;52677;50.898;10.854;2022-09-30T12:04:50;6.82;;;4.40;;
65896;SDS011;52677;50.898;10.854;2022-09-30T12:06:58;5.03;;;3.53;;
65896;SDS011;52677;50.898;10.854;2022-09-30T12:09:05;12.63;;;4.05;;
65896;SDS011;52677;50.898;10.854;2022-09-30T12:11:22;3.90;;;3.15;;
65896;SDS011;52677;50.898;10.854;2022-09-30T12:13:33;3.35;;;2.70;;
65896;SDS011;52677;50.898;10.854;2022-09-30T12:15:38;3.42;;;2.97;;
65896;SDS011;52677;50.898;10.854;2022-09-30T12:17:46;6.78;;;2.90;;
65896;SDS011;52677;50.898;10.854;2022-09-30T12:19:51;3.75;;;2.95;;
65896;SDS011;52677;50.898;10.854;2022-09-30T12:24:26;6.35;;;3.47;;
65896;SDS011;52677;50.898;10.854;2022-09-30T12:26:31;5.43;;;4.05;;
65896;SDS011;52677;50.898;10.854;2022-09-30T12:49:10;6.28;;;2.35;;
65896;SDS011;52677;50.898;10.854;2022-09-30T12:51:20;3.03;;;2.17;;
65896;SDS011;52677;50.898;10.854;2022-09-30T12:53:25;3.72;;;2.30;;
65896;SDS011;52677;50.898;10.854;2022-09-30T12:55:35;3.90;;;2.22;;
65896;SDS011;52677;50.898;10.854;2022-09-30T12:57:39;10.27;;;5.13;;
65896;SDS011;52677;50.898;10.854;2022-09-30T12:59:46;15.80;;;6.43;;
65896;SDS011;52677;50.898;10.854;2022-09-30T13:01:51;5.13;;;2.60;;
65896;SDS011;52677;50.898;10.854;2022-09-30T13:06:01;2.70;;;1.77;;
65896;SDS011;52677;50.898;10.854;2022-09-30T13:10:25;4.72;;;2.25;;
65896;SDS011;52677;50.898;10.854;2022-09-30T13:14:41;3.05;;;2.20;;
65896;SDS011;52677;50.898;10.854;2022-09-30T13:19:17;3.10;;;2.13;;
65896;SDS011;52677;50.898;10.854;2022-09-30T13:21:20;4.22;;;1.92;;
65896;SDS011;52677;50.898;10.854;2022-09-30T13:25:53;2.83;;;1.63;;
65896;SDS011;52677;50.898;10.854;2022-09-30T13:32:37;2.33;;;1.75;;
65896;SDS011;52677;50.898;10.854;2022-09-30T13:34:53;1.70;;;1.50;;
65896;SDS011;52677;50.898;10.854;2022-09-30T13:37:04;2.13;;;1.63;;
65896;SDS011;52677;50.898;10.854;2022-09-30T13:39:18;3.03;;;1.60;;
65896;SDS011;52677;50.898;10.854;2022-09-30T13:41:22;1.90;;;1.55;;
65896;SDS011;52677;50.898;10.854;2022-09-30T13:43:45;3.15;;;1.50;;
65896;SDS011;52677;50.898;10.854;2022-09-30T13:46:10;2.95;;;1.50;;
65896;SDS011;52677;50.898;10.854;2022-09-30T13:48:17;2.45;;;1.85;;
65896;SDS011;52677;50.898;10.854;2022-09-30T13:50:32;2.75;;;1.70;;
65896;SDS011;52677;50.898;10.854;2022-09-30T13:52:39;1.98;;;1.50;;
65896;SDS011;52677;50.898;10.854;2022-09-30T13:54:43;1.92;;;1.45;;
65896;SDS011;52677;50.898;10.854;2022-09-30T13:56:46;2.35;;;1.48;;
65896;SDS011;52677;50.898;10.854;2022-09-30T14:01:22;2.28;;;1.60;;
65896;SDS011;52677;50.898;10.854;2022-09-30T14:06:31;4.45;;;1.55;;
65896;SDS011;52677;50.898;10.854;2022-09-30T14:08:46;4.78;;;1.75;;
65896;SDS011;52677;50.898;10.854;2022-09-30T14:11:18;1.95;;;1.40;;
65896;SDS011;52677;50.898;10.854;2022-09-30T14:13:45;2.45;;;1.55;;
65896;SDS011;52677;50.898;10.854;2022-09-30T14:21:01;2.58;;;1.85;;
65896;SDS011;52677;50.898;10.854;2022-09-30T14:23:15;4.20;;;2.50;;
65896;SDS011;52677;50.898;10.854;2022-09-30T14:25:17;7.53;;;1.90;;
65896;SDS011;52677;50.898;10.854;2022-09-30T14:31:29;3.20;;;1.90;;
65896;SDS011;52677;50.898;10.854;2022-09-30T14:33:31;2.83;;;2.25;;
65896;SDS011;52677;50.898;10.854;2022-09-30T14:35:33;3.58;;;2.25;;
65896;SDS011;52677;50.898;10.854;2022-09-30T14:37:41;2.50;;;1.90;;
65896;SDS011;52677;50.898;10.854;2022-09-30T14:39:46;2.53;;;2.17;;
65896;SDS011;52677;50.898;10.854;2022-09-30T14:41:55;3.00;;;2.03;;
65896;SDS011;52677;50.898;10.854;2022-09-30T14:43:58;2.50;;;2.30;;
65896;SDS011;52677;50.898;10.854;2022-09-30T14:46:09;2.90;;;2.10;;
65896;SDS011;52677;50.898;10.854;2022-09-30T14:48:25;4.03;;;2.30;;
65896;SDS011;52677;50.898;10.854;2022-09-30T14:50:29;3.25;;;2.15;;
65896;SDS011;52677;50.898;10.854;2022-09-30T14:52:40;2.22;;;2.00;;
65896;SDS011;52677;50.898;10.854;2022-09-30T14:54:45;2.60;;;2.10;;
65896;SDS011;52677;50.898;10.854;2022-09-30T14:56:46;4.32;;;2.10;;
65896;SDS011;52677;50.898;10.854;2022-09-30T14:58:48;2.83;;;1.90;;
65896;SDS011;52677;50.898;10.854;2022-09-30T15:01:33;6.00;;;2.88;;
65896;SDS011;52677;50.898;10.854;2022-09-30T15:03:19;3.45;;;2.25;;
65896;SDS011;52677;50.898;10.854;2022-09-30T15:05:21;5.85;;;2.53;;
65896;SDS011;52677;50.898;10.854;2022-09-30T15:07:21;3.30;;;2.30;;
65896;SDS011;52677;50.898;10.854;2022-09-30T15:09:24;2.90;;;2.15;;
65896;SDS011;52677;50.898;10.854;2022-09-30T15:11:27;3.35;;;2.22;;
65896;SDS011;52677;50.898;10.854;2022-09-30T15:13:29;2.63;;;2.40;;
65896;SDS011;52677;50.898;10.854;2022-09-30T15:15:32;3.60;;;2.20;;
65896;SDS011;52677;50.898;10.854;2022-09-30T15:17:35;2.88;;;2.08;;
65896;SDS011;52677;50.898;10.854;2022-09-30T15:19:41;3.13;;;2.33;;